Rising Eagle — J8B4538 — position and weather

sailwx.info

Track history (hours):
 
Tides and Currents Weather Stations Pressure Air Temp Water Temp Dewpoint Dewpoint Depression Visibility Wind Speed Wind Dir Waves Ship Positions

Rising Eagle

Last reported at 2015-May-23 21:33 UTC. Time now 2015-May-24 17:25 UTC.
Position N 38°15' E 026°08'.

Length 167 m; draft 5 m.

Type: Cargo ship. MMSI: 376369000.

Date/timePositionNaut miles runAvg speedWind from/ knotsBaromVisibWave heightAir tempDewpointWater temp
2015-May-23 21:33N 38°15' E 026°08'0 0.0
2015-May-23 20:27N 38°15' E 026°08'  
2015-May-19 14:13N 38°15' E 026°08'3 0.1
2015-May-18 09:28N 38°13' E 026°07'8712.5
2015-May-18 02:33N 37°46' E 024°22'1413.1
2015-May-18 01:30N 37°36' E 024°10'1613.0
2015-May-18 00:14N 37°22' E 023°60'912.9
2015-May-17 23:32N 37°14' E 023°54'1313.0
2015-May-17 22:33N 37°03' E 023°46'1313.0
2015-May-17 21:33N 36°52' E 023°38'1312.9
2015-May-17 20:33N 36°40' E 023°31'1312.8
2015-May-17 19:33N 36°30' E 023°22'1111.3
2015-May-17 18:33N 36°22' E 023°12'2612.9
2015-May-17 16:33N 36°23' E 022°40'21411.8
2015-May-16 22:28N 38°59' E 019°36'1212.7
2015-May-16 21:33N 39°09' E 019°30'1312.8
2015-May-16 20:33N 39°21' E 019°24'1312.9
2015-May-16 19:33N 39°33' E 019°17'1313.1
2015-May-16 18:33N 39°45' E 019°10'1312.7
2015-May-16 17:33N 39°56' E 019°03'1312.5
2015-May-16 16:33N 40°08' E 018°56'1312.7
2015-May-16 15:33N 40°19' E 018°48'1212.2
2015-May-16 14:33N 40°30' E 018°41'  
Track history (hours):
 
Tides and Currents Weather Stations Pressure Air Temp Water Temp Dewpoint Dewpoint Depression Visibility Wind Speed Wind Dir Waves Ship Positions

Rising Eagle

Last reported at 2015-May-23 21:33 UTC. Time now 2015-May-24 17:25 UTC.
Position N 38°15' E 026°08'.

Length 167 m; draft 5 m.

Type: Cargo ship. MMSI: 376369000.

Date/timePositionNaut miles runAvg speedWind from/ knotsBaromVisibWave heightAir tempDewpointWater temp
2015-May-23 21:33N 38°15' E 026°08'0 0.0
2015-May-23 20:27N 38°15' E 026°08'  
2015-May-19 14:13N 38°15' E 026°08'3 0.1
2015-May-18 09:28N 38°13' E 026°07'8712.5
2015-May-18 02:33N 37°46' E 024°22'1413.1
2015-May-18 01:30N 37°36' E 024°10'1613.0
2015-May-18 00:14N 37°22' E 023°60'912.9
2015-May-17 23:32N 37°14' E 023°54'1313.0
2015-May-17 22:33N 37°03' E 023°46'1313.0
2015-May-17 21:33N 36°52' E 023°38'1312.9
2015-May-17 20:33N 36°40' E 023°31'1312.8
2015-May-17 19:33N 36°30' E 023°22'1111.3
2015-May-17 18:33N 36°22' E 023°12'2612.9
2015-May-17 16:33N 36°23' E 022°40'21411.8
2015-May-16 22:28N 38°59' E 019°36'1212.7
2015-May-16 21:33N 39°09' E 019°30'1312.8
2015-May-16 20:33N 39°21' E 019°24'1312.9
2015-May-16 19:33N 39°33' E 019°17'1313.1
2015-May-16 18:33N 39°45' E 019°10'1312.7
2015-May-16 17:33N 39°56' E 019°03'1312.5
2015-May-16 16:33N 40°08' E 018°56'1312.7
2015-May-16 15:33N 40°19' E 018°48'1212.2
2015-May-16 14:33N 40°30' E 018°41'  

Dump ship's entire track history